createdAt,value
2023-03-06T00:00:18.049Z,0.00
2023-03-06T00:01:18.214Z,0.00
2023-03-06T00:02:18.322Z,0.00
2023-03-06T00:03:18.614Z,0.00
2023-03-06T00:04:18.573Z,0.00
2023-03-06T00:05:18.724Z,0.00
2023-03-06T00:06:18.902Z,0.00
2023-03-06T00:07:19.024Z,0.00
2023-03-06T00:08:19.133Z,0.00
2023-03-06T00:09:19.231Z,0.00
2023-03-06T00:10:19.375Z,0.00
2023-03-06T00:11:19.491Z,0.00
2023-03-06T00:12:19.612Z,0.00
2023-03-06T00:13:19.713Z,0.00
2023-03-06T00:14:19.839Z,0.00
2023-03-06T00:15:19.997Z,0.00
2023-03-06T00:16:20.168Z,0.00
2023-03-06T00:17:20.277Z,0.00
2023-03-06T00:18:20.392Z,0.00
2023-03-06T00:19:20.531Z,0.00
2023-03-06T00:20:20.619Z,0.00
2023-03-06T00:21:20.766Z,0.00
2023-03-06T00:22:20.908Z,0.00
2023-03-06T00:23:21.098Z,0.00
2023-03-06T00:24:21.186Z,0.00
2023-03-06T00:25:21.330Z,0.00
2023-03-06T00:26:21.479Z,0.00
2023-03-06T00:27:21.617Z,0.00
2023-03-06T00:28:21.742Z,0.00
2023-03-06T00:29:21.826Z,0.00
2023-03-06T00:30:21.966Z,0.00
2023-03-06T00:31:22.119Z,0.00
2023-03-06T00:32:22.277Z,0.00
2023-03-06T00:33:22.369Z,0.00
2023-03-06T00:34:22.453Z,0.00
2023-03-06T00:35:22.633Z,0.00
2023-03-06T00:36:22.720Z,0.00
2023-03-06T00:37:22.866Z,0.00
2023-03-06T00:38:23.030Z,0.00
2023-03-06T00:39:23.130Z,0.00
2023-03-06T00:40:23.272Z,0.00
2023-03-06T00:41:23.431Z,0.00
2023-03-06T00:42:23.549Z,0.00
2023-03-06T00:43:23.641Z,0.00
2023-03-06T00:44:23.780Z,0.00
2023-03-06T00:45:23.966Z,0.00
2023-03-06T00:46:23.987Z,0.00
2023-03-06T00:47:24.148Z,0.00
2023-03-06T00:48:24.237Z,0.00
2023-03-06T00:49:24.399Z,0.00
2023-03-06T00:50:24.498Z,0.00
2023-03-06T00:51:24.681Z,0.00
2023-03-06T00:52:24.767Z,0.00
2023-03-06T00:53:24.865Z,0.00
2023-03-06T00:54:25.024Z,0.00
2023-03-06T00:55:25.162Z,0.00
2023-03-06T00:56:25.280Z,0.00
2023-03-06T00:57:25.347Z,0.00
2023-03-06T00:58:25.508Z,0.00
2023-03-06T00:59:25.585Z,0.00
2023-03-06T01:00:25.732Z,0.00
2023-03-06T01:01:25.872Z,0.00
2023-03-06T01:02:26.083Z,0.00
2023-03-06T01:03:26.191Z,0.00
2023-03-06T01:04:26.229Z,0.00
2023-03-06T01:05:26.397Z,0.00
2023-03-06T01:06:26.496Z,0.00
2023-03-06T01:07:26.638Z,0.00
2023-03-06T01:08:26.778Z,0.00
2023-03-06T01:09:26.879Z,0.00
2023-03-06T01:10:27.201Z,0.00
2023-03-06T01:11:27.117Z,0.00
2023-03-06T01:12:27.265Z,0.00
2023-03-06T01:13:27.415Z,0.00
2023-03-06T01:14:27.554Z,0.00
2023-03-06T01:15:27.703Z,0.00
2023-03-06T01:16:27.906Z,0.00
2023-03-06T01:17:27.992Z,0.00
2023-03-06T01:18:28.112Z,0.00
2023-03-06T01:19:28.213Z,0.00
2023-03-06T01:20:28.343Z,0.00
2023-03-06T01:21:28.472Z,0.00
2023-03-06T01:22:28.632Z,0.00
2023-03-06T01:23:28.722Z,0.00
2023-03-06T01:24:28.823Z,0.00
2023-03-06T01:25:28.920Z,0.00
2023-03-06T01:26:29.103Z,0.00
2023-03-06T01:27:29.192Z,0.00
2023-03-06T01:28:29.299Z,0.00
2023-03-06T01:29:29.437Z,0.00
2023-03-06T01:30:29.508Z,0.00
2023-03-06T01:31:29.666Z,0.00
2023-03-06T01:32:29.837Z,0.00
2023-03-06T01:33:29.953Z,0.00
2023-03-06T01:34:30.043Z,0.00
2023-03-06T01:35:30.253Z,0.00
2023-03-06T01:36:30.334Z,0.00
2023-03-06T01:37:30.496Z,0.00
2023-03-06T01:38:30.637Z,0.00
2023-03-06T01:39:30.756Z,0.00
2023-03-06T01:40:30.857Z,0.00
2023-03-06T01:41:31.016Z,0.00
2023-03-06T01:42:32.184Z,0.00
2023-03-06T01:43:31.260Z,0.00
2023-03-06T01:44:31.409Z,0.00
2023-03-06T01:45:31.544Z,0.00
2023-03-06T01:46:31.616Z,0.00
2023-03-06T01:47:31.708Z,0.00
2023-03-06T01:48:31.850Z,0.00
2023-03-06T01:49:32.001Z,0.00
2023-03-06T01:50:32.093Z,0.00
2023-03-06T01:51:32.272Z,0.00
2023-03-06T01:52:32.361Z,0.00
2023-03-06T01:53:32.506Z,0.00
2023-03-06T01:54:32.716Z,0.00
2023-03-06T01:55:32.778Z,0.00
2023-03-06T01:56:32.909Z,0.00
2023-03-06T01:57:33.041Z,0.00
2023-03-06T01:58:33.134Z,0.00
2023-03-06T01:59:33.277Z,0.00
2023-03-06T02:00:33.433Z,0.00
2023-03-06T02:01:33.535Z,0.00
2023-03-06T02:02:33.677Z,0.00
2023-03-06T02:03:33.767Z,0.00
2023-03-06T02:04:33.963Z,0.00
2023-03-06T02:05:34.046Z,0.00
2023-03-06T02:06:34.182Z,0.00
2023-03-06T02:07:34.318Z,0.00
2023-03-06T02:08:34.461Z,0.00
2023-03-06T02:09:34.635Z,0.00
2023-03-06T02:10:34.742Z,0.00
2023-03-06T02:11:34.894Z,0.00
2023-03-06T02:12:34.975Z,0.00
2023-03-06T02:13:35.065Z,0.00
2023-03-06T02:14:35.220Z,0.00
2023-03-06T02:15:35.311Z,0.00
2023-03-06T02:16:35.483Z,0.00
2023-03-06T02:17:35.634Z,0.00
2023-03-06T02:18:35.719Z,0.00
2023-03-06T02:19:35.870Z,0.00
2023-03-06T02:20:35.964Z,0.00
2023-03-06T02:21:36.131Z,0.00
2023-03-06T02:22:36.251Z,0.00
2023-03-06T02:23:36.330Z,0.00
2023-03-06T02:24:36.478Z,0.00
2023-03-06T02:25:36.577Z,0.00
2023-03-06T02:26:36.659Z,0.00
2023-03-06T02:27:36.840Z,0.00
2023-03-06T02:28:36.926Z,0.00
2023-03-06T02:29:37.077Z,0.00
2023-03-06T02:30:37.255Z,0.00
2023-03-06T02:31:37.278Z,0.00
2023-03-06T02:32:37.484Z,0.00
2023-03-06T02:33:37.517Z,0.00
2023-03-06T02:34:37.655Z,0.00
2023-03-06T02:35:37.832Z,0.00
2023-03-06T02:36:37.897Z,0.00
2023-03-06T02:37:38.046Z,0.00
2023-03-06T02:38:38.178Z,0.00
2023-03-06T02:39:38.345Z,0.00
2023-03-06T02:40:38.494Z,0.00
2023-03-06T02:41:38.597Z,0.00
2023-03-06T02:42:38.724Z,0.00
2023-03-06T02:43:38.871Z,0.00
2023-03-06T02:44:38.944Z,0.00
2023-03-06T02:45:39.109Z,0.00
2023-03-06T02:46:39.211Z,0.00
2023-03-06T02:47:39.300Z,0.00
2023-03-06T02:48:39.462Z,0.00
2023-03-06T02:49:39.561Z,0.00
2023-03-06T02:50:39.716Z,0.00
2023-03-06T02:51:39.848Z,0.00
2023-03-06T02:52:39.957Z,0.00
2023-03-06T02:53:40.066Z,0.00
2023-03-06T02:54:40.183Z,0.00
2023-03-06T02:55:40.325Z,0.00
2023-03-06T02:56:40.459Z,0.00
2023-03-06T02:57:40.631Z,0.00
2023-03-06T02:58:40.705Z,0.00
2023-03-06T02:59:40.793Z,0.00
2023-03-06T03:00:40.954Z,0.00
2023-03-06T03:01:41.080Z,0.00
2023-03-06T03:02:41.158Z,0.00
2023-03-06T03:03:41.252Z,0.00
2023-03-06T03:04:41.447Z,0.00
2023-03-06T03:05:41.460Z,0.00
2023-03-06T03:06:41.633Z,0.00
2023-03-06T03:07:41.739Z,0.00
2023-03-06T03:08:41.891Z,0.00
2023-03-06T03:09:42.038Z,0.00
2023-03-06T03:10:42.198Z,0.00
2023-03-06T03:11:42.278Z,0.00
2023-03-06T03:12:42.427Z,0.00
2023-03-06T03:13:42.582Z,0.00
2023-03-06T03:14:42.699Z,0.00
2023-03-06T03:15:42.826Z,0.00
2023-03-06T03:16:42.931Z,0.00
2023-03-06T03:17:43.014Z,0.00
2023-03-06T03:18:43.166Z,0.00
2023-03-06T03:19:43.336Z,0.00
2023-03-06T03:20:43.429Z,0.00
2023-03-06T03:21:43.538Z,0.00
2023-03-06T03:22:43.684Z,0.00
2023-03-06T03:23:43.767Z,0.00
2023-03-06T03:24:43.935Z,0.00
2023-03-06T03:25:44.042Z,0.00
2023-03-06T03:26:44.150Z,0.00
2023-03-06T03:27:44.262Z,0.00
2023-03-06T03:28:44.368Z,0.00
2023-03-06T03:29:44.465Z,0.00
2023-03-06T03:30:44.625Z,0.00
2023-03-06T03:31:44.735Z,0.00
2023-03-06T03:32:44.837Z,0.00
2023-03-06T03:33:44.943Z,0.00
2023-03-06T03:34:45.054Z,0.00
2023-03-06T03:35:45.257Z,0.00
2023-03-06T03:36:45.284Z,0.00
2023-03-06T03:37:45.476Z,0.00
2023-03-06T03:38:45.534Z,0.00
2023-03-06T03:39:45.640Z,0.00
2023-03-06T03:40:45.784Z,0.00
2023-03-06T03:41:45.941Z,0.00
2023-03-06T03:42:46.017Z,0.00
2023-03-06T03:43:46.152Z,0.00
2023-03-06T03:44:46.283Z,0.00
2023-03-06T03:45:46.444Z,0.00
2023-03-06T03:46:46.732Z,0.00
2023-03-06T03:47:46.683Z,0.00
2023-03-06T03:48:46.822Z,0.00
2023-03-06T03:49:47.011Z,0.00
2023-03-06T03:50:47.108Z,0.00
2023-03-06T03:51:47.292Z,0.00
2023-03-06T03:52:47.399Z,0.00
2023-03-06T03:53:47.507Z,0.00
2023-03-06T03:54:47.606Z,0.00
2023-03-06T03:55:47.700Z,0.00
2023-03-06T03:56:47.849Z,0.00
2023-03-06T03:57:48.018Z,0.00
2023-03-06T03:58:48.096Z,0.00
2023-03-06T03:59:48.257Z,0.00
2023-03-06T04:00:48.399Z,0.00
2023-03-06T04:01:48.539Z,0.00
2023-03-06T04:02:48.615Z,0.00
2023-03-06T04:03:48.765Z,0.00
2023-03-06T04:04:48.924Z,0.00
2023-03-06T04:05:49.013Z,0.00
2023-03-06T04:06:49.103Z,0.00
2023-03-06T04:07:49.252Z,0.00
2023-03-06T04:08:49.482Z,0.00
2023-03-06T04:09:49.467Z,0.00
2023-03-06T04:10:49.616Z,0.00
2023-03-06T04:11:49.718Z,0.00
2023-03-06T04:12:49.857Z,0.00
2023-03-06T04:13:50.031Z,0.00
2023-03-06T04:14:50.131Z,0.00
2023-03-06T04:15:50.313Z,0.00
2023-03-06T04:16:50.421Z,0.00
2023-03-06T04:17:50.542Z,0.00
2023-03-06T04:18:50.680Z,0.00
2023-03-06T04:19:50.769Z,0.00
2023-03-06T04:20:50.938Z,0.00
2023-03-06T04:21:51.081Z,0.00
2023-03-06T04:22:51.206Z,0.00
2023-03-06T04:23:51.381Z,0.00
2023-03-06T04:24:51.487Z,0.00
2023-03-06T04:25:51.598Z,0.00
2023-03-06T04:26:51.696Z,0.00
2023-03-06T04:27:51.788Z,0.00
2023-03-06T04:28:51.955Z,0.00
2023-03-06T04:29:52.046Z,0.00
2023-03-06T04:30:52.199Z,0.00
2023-03-06T04:31:52.281Z,0.00
2023-03-06T04:32:52.425Z,0.00
2023-03-06T04:33:52.605Z,0.00
2023-03-06T04:34:52.695Z,0.00
2023-03-06T04:35:52.855Z,0.00
2023-03-06T04:36:52.931Z,0.00
2023-03-06T04:37:53.066Z,0.00
2023-03-06T04:38:53.204Z,0.00
2023-03-06T04:39:53.330Z,0.00
2023-03-06T04:40:53.414Z,0.00
2023-03-06T04:41:53.587Z,0.00
2023-03-06T04:42:53.697Z,0.00
2023-03-06T04:43:53.836Z,0.00
2023-03-06T04:44:54.010Z,0.00
2023-03-06T04:45:54.169Z,0.00
2023-03-06T04:46:54.253Z,0.00
2023-03-06T04:47:54.343Z,0.00
2023-03-06T04:48:54.487Z,0.00
2023-03-06T04:49:54.664Z,0.00
2023-03-06T04:50:54.791Z,0.00
2023-03-06T04:51:54.872Z,0.00
2023-03-06T04:52:55.025Z,0.00
2023-03-06T04:53:55.164Z,0.00
2023-03-06T04:54:55.301Z,0.00
2023-03-06T04:55:55.452Z,0.00
2023-03-06T04:56:55.559Z,0.00
2023-03-06T04:57:55.760Z,0.00
2023-03-06T04:58:55.798Z,0.00
2023-03-06T04:59:55.940Z,0.00
2023-03-06T05:00:56.126Z,0.00
2023-03-06T05:01:56.165Z,0.00
2023-03-06T05:02:56.280Z,0.00
2023-03-06T05:03:56.416Z,0.00
2023-03-06T05:04:56.506Z,0.00
2023-03-06T05:05:56.673Z,0.00
2023-03-06T05:06:56.806Z,0.00
2023-03-06T05:07:56.966Z,0.00
2023-03-06T05:08:57.046Z,0.00
2023-03-06T05:09:57.151Z,0.00
2023-03-06T05:10:57.319Z,0.00
2023-03-06T05:11:57.411Z,0.00
2023-03-06T05:12:57.591Z,0.00
2023-03-06T05:13:57.634Z,0.00
2023-03-06T05:14:57.780Z,0.00
2023-03-06T05:15:57.960Z,0.00
2023-03-06T05:16:58.063Z,0.00
2023-03-06T05:17:58.159Z,0.00
2023-03-06T05:18:58.288Z,0.00
2023-03-06T05:19:58.356Z,0.00
2023-03-06T05:20:58.526Z,0.00
2023-03-06T05:21:58.634Z,0.00
2023-03-06T05:22:58.766Z,0.00
2023-03-06T05:23:58.934Z,0.00
2023-03-06T05:24:59.027Z,0.00
2023-03-06T05:25:59.193Z,0.00
2023-03-06T05:26:59.282Z,0.00
2023-03-06T05:27:59.456Z,0.00
2023-03-06T05:28:59.553Z,0.00
2023-03-06T05:29:59.656Z,0.00
2023-03-06T05:31:01.600Z,0.00
2023-03-06T05:32:00.126Z,0.00
2023-03-06T05:33:00.110Z,0.00
2023-03-06T05:34:00.201Z,0.00
2023-03-06T05:35:00.350Z,0.00
2023-03-06T05:36:00.437Z,0.00
2023-03-06T05:37:00.634Z,0.00
2023-03-06T05:38:00.735Z,0.00
2023-03-06T05:39:00.824Z,0.00
2023-03-06T05:40:00.934Z,0.00
2023-03-06T05:41:01.034Z,0.00
2023-03-06T05:42:01.208Z,0.00
2023-03-06T05:43:01.293Z,0.00
2023-03-06T05:44:01.435Z,0.00
2023-03-06T05:45:01.629Z,0.00
2023-03-06T05:46:01.754Z,0.00
2023-03-06T05:47:01.890Z,0.00
2023-03-06T05:48:01.990Z,0.00
2023-03-06T05:49:02.092Z,0.00
2023-03-06T05:50:02.175Z,0.00
2023-03-06T05:51:02.313Z,0.00
2023-03-06T05:52:02.457Z,0.00
2023-03-06T05:53:02.624Z,0.00
2023-03-06T05:54:02.705Z,0.00
2023-03-06T05:55:02.841Z,0.00
2023-03-06T05:56:02.999Z,0.00
2023-03-06T05:57:03.144Z,0.00
2023-03-06T05:58:03.298Z,0.00
2023-03-06T05:59:03.390Z,0.00
2023-03-06T06:00:03.528Z,0.00
2023-03-06T06:01:03.698Z,0.00
2023-03-06T06:02:03.823Z,0.00
2023-03-06T06:03:03.936Z,0.00
2023-03-06T06:04:04.089Z,0.00
2023-03-06T06:05:04.216Z,0.00
2023-03-06T06:06:04.319Z,0.00
2023-03-06T06:07:04.405Z,0.00
2023-03-06T06:08:04.566Z,0.00
2023-03-06T06:09:04.748Z,0.00
2023-03-06T06:10:04.830Z,0.00
2023-03-06T06:11:04.940Z,0.00
2023-03-06T06:12:05.053Z,0.00
2023-03-06T06:13:05.161Z,0.00
2023-03-06T06:14:05.311Z,5.62
2023-03-06T06:15:05.451Z,5.62
2023-03-06T06:16:05.624Z,5.62
2023-03-06T06:17:05.708Z,5.62
2023-03-06T06:18:05.842Z,5.62
2023-03-06T06:19:05.983Z,5.62
2023-03-06T06:20:06.108Z,5.62
2023-03-06T06:21:06.212Z,5.62
2023-03-06T06:22:06.303Z,11.25
2023-03-06T06:23:06.453Z,11.25
2023-03-06T06:24:06.546Z,11.25
2023-03-06T06:25:06.738Z,11.25
2023-03-06T06:26:06.858Z,16.88
2023-03-06T06:27:06.968Z,16.88
2023-03-06T06:28:07.110Z,16.88
2023-03-06T06:29:07.268Z,16.88
2023-03-06T06:30:41.929Z,0.00
2023-03-06T06:31:41.923Z,0.00
2023-03-06T06:32:41.972Z,0.00
2023-03-06T06:33:41.895Z,0.00
2023-03-06T06:34:41.907Z,0.00
2023-03-06T06:35:41.936Z,0.00
2023-03-06T06:36:41.897Z,0.00
2023-03-06T06:37:41.868Z,0.00
2023-03-06T06:38:41.864Z,0.00
2023-03-06T06:39:41.856Z,0.00
2023-03-06T06:40:41.865Z,0.00
2023-03-06T06:41:59.391Z,0.00
2023-03-06T06:42:42.866Z,0.00
2023-03-06T06:43:41.825Z,0.00
2023-03-06T06:44:41.822Z,0.00
2023-03-06T06:45:41.813Z,0.00
2023-03-06T06:47:42.838Z,0.00
2023-03-06T06:48:41.793Z,0.00
2023-03-06T06:49:41.789Z,0.00
2023-03-06T06:50:41.892Z,0.00
2023-03-06T06:51:41.776Z,0.00
2023-03-06T06:52:41.773Z,0.00
2023-03-06T06:53:41.776Z,0.00
2023-03-06T06:54:41.804Z,0.00
2023-03-06T06:55:41.760Z,0.00
2023-03-06T06:56:41.744Z,0.00
2023-03-06T06:57:41.743Z,0.00
2023-03-06T06:58:41.799Z,0.00
2023-03-06T06:59:41.772Z,0.00
2023-03-06T07:00:41.723Z,0.00
2023-03-06T07:01:41.757Z,0.00
2023-03-06T07:02:41.737Z,0.00
2023-03-06T07:03:41.741Z,0.00
2023-03-06T07:04:52.770Z,0.00
2023-03-06T07:05:42.692Z,0.00
2023-03-06T07:06:41.673Z,0.00
2023-03-06T07:07:41.693Z,0.00
2023-03-06T07:08:41.673Z,0.00
2023-03-06T07:09:41.663Z,0.00
2023-03-06T07:10:41.679Z,0.00
2023-03-06T07:11:41.644Z,0.00
2023-03-06T07:12:41.655Z,0.00
2023-03-06T07:13:41.644Z,0.00
2023-03-06T07:14:41.629Z,0.00
2023-03-06T07:15:41.691Z,0.00
2023-03-06T07:16:41.604Z,0.00
2023-03-06T07:17:41.616Z,0.00
2023-03-06T07:18:41.605Z,0.00
2023-03-06T07:19:41.603Z,0.00
2023-03-06T07:20:41.595Z,0.00
2023-03-06T07:21:41.600Z,0.00
2023-03-06T07:22:50.828Z,0.00
2023-03-06T07:23:42.574Z,0.00
2023-03-06T07:24:41.591Z,0.00
2023-03-06T07:25:41.572Z,0.00
2023-03-06T07:26:45.088Z,0.00
2023-03-06T07:27:25.056Z,163.12
2023-03-06T07:28:25.152Z,168.75
2023-03-06T07:29:25.284Z,180.00
2023-03-06T07:30:25.478Z,196.88
2023-03-06T07:31:25.621Z,213.75
2023-03-06T07:32:25.805Z,230.62
2023-03-06T07:33:25.854Z,253.12
2023-03-06T07:34:25.984Z,247.50
2023-03-06T07:35:26.169Z,230.62
2023-03-06T07:36:26.263Z,241.88
2023-03-06T07:37:26.347Z,258.75
2023-03-06T07:38:26.505Z,275.62
2023-03-06T07:39:26.645Z,292.50
2023-03-06T07:40:26.827Z,298.12
2023-03-06T07:41:26.855Z,298.12
2023-03-06T07:42:26.950Z,298.12
2023-03-06T07:43:27.057Z,286.88
2023-03-06T07:44:27.187Z,292.50
2023-03-06T07:45:27.297Z,298.12
2023-03-06T07:46:27.480Z,292.50
2023-03-06T07:47:27.608Z,292.50
2023-03-06T07:48:27.701Z,298.12
2023-03-06T07:49:27.786Z,303.75
2023-03-06T07:50:27.940Z,315.00
2023-03-06T07:51:28.055Z,309.38
2023-03-06T07:52:28.147Z,309.38
2023-03-06T07:53:28.268Z,348.75
2023-03-06T07:54:29.416Z,365.62
2023-03-06T07:55:28.494Z,393.75
2023-03-06T07:56:28.608Z,388.12
2023-03-06T07:57:28.761Z,337.50
2023-03-06T07:58:28.860Z,270.00
2023-03-06T07:59:29.027Z,253.12
2023-03-06T08:00:29.124Z,230.62
2023-03-06T08:01:29.275Z,225.00
2023-03-06T08:02:29.401Z,202.50
2023-03-06T08:03:29.568Z,180.00
2023-03-06T08:04:30.261Z,196.88
2023-03-06T08:05:29.815Z,213.75
2023-03-06T08:06:29.908Z,236.25
2023-03-06T08:07:30.102Z,247.50
2023-03-06T08:08:30.203Z,264.38
2023-03-06T08:09:30.356Z,286.88
2023-03-06T08:10:30.523Z,281.25
2023-03-06T08:11:30.623Z,309.38
2023-03-06T08:12:30.755Z,365.62
2023-03-06T08:13:30.879Z,348.75
2023-03-06T08:14:31.046Z,309.38
2023-03-06T08:15:31.228Z,286.88
2023-03-06T08:16:31.305Z,258.75
2023-03-06T08:17:31.374Z,219.38
2023-03-06T08:18:31.469Z,208.12
2023-03-06T08:19:31.774Z,191.25
2023-03-06T08:20:31.769Z,185.62
2023-03-06T08:21:31.865Z,185.62
2023-03-06T08:22:32.004Z,219.38
2023-03-06T08:23:32.150Z,241.88
2023-03-06T08:24:32.305Z,320.62
2023-03-06T08:25:32.403Z,382.50
2023-03-06T08:26:32.559Z,343.12
2023-03-06T08:27:32.811Z,326.25
2023-03-06T08:28:32.813Z,281.25
2023-03-06T08:29:32.951Z,275.62
2023-03-06T08:30:33.099Z,286.88
2023-03-06T08:31:33.333Z,315.00
2023-03-06T08:32:33.648Z,354.38
2023-03-06T08:33:33.459Z,393.75
2023-03-06T08:34:33.595Z,376.88
2023-03-06T08:35:33.785Z,354.38
2023-03-06T08:36:33.899Z,421.88
2023-03-06T08:37:34.068Z,416.25
2023-03-06T08:38:34.116Z,416.25
2023-03-06T08:39:34.247Z,483.75
2023-03-06T08:40:34.387Z,472.50
2023-03-06T08:41:34.537Z,495.00
2023-03-06T08:42:34.680Z,523.12
2023-03-06T08:43:34.859Z,489.38
2023-03-06T08:44:34.949Z,466.88
2023-03-06T08:45:35.103Z,444.38
2023-03-06T08:46:38.976Z,410.62
2023-03-06T08:47:35.390Z,388.12
2023-03-06T08:48:35.495Z,393.75
2023-03-06T08:49:35.573Z,382.50
2023-03-06T08:50:35.713Z,343.12
2023-03-06T08:51:35.812Z,343.12
2023-03-06T08:52:35.959Z,337.50
2023-03-06T08:53:43.128Z,331.88
2023-03-06T08:54:37.220Z,371.25
2023-03-06T08:55:36.359Z,354.38
2023-03-06T08:56:36.504Z,371.25
2023-03-06T08:57:36.694Z,371.25
2023-03-06T08:58:36.781Z,376.88
2023-03-06T08:59:36.883Z,405.00
2023-03-06T09:00:37.086Z,416.25
2023-03-06T09:01:37.239Z,410.62
2023-03-06T09:02:37.351Z,393.75
2023-03-06T09:03:37.512Z,388.12
2023-03-06T09:04:37.619Z,388.12
2023-03-06T09:05:37.705Z,376.88
2023-03-06T09:06:37.849Z,376.88
2023-03-06T09:07:38.001Z,376.88
2023-03-06T09:08:38.156Z,376.88
2023-03-06T09:09:38.250Z,371.25
2023-03-06T09:10:38.443Z,399.38
2023-03-06T09:11:38.505Z,393.75
2023-03-06T09:12:49.881Z,405.00
2023-03-06T09:13:39.758Z,399.38
2023-03-06T09:14:38.835Z,399.38
2023-03-06T09:15:38.984Z,388.12
2023-03-06T09:16:39.103Z,360.00
2023-03-06T09:17:39.293Z,388.12
2023-03-06T09:18:39.345Z,421.88
2023-03-06T09:19:39.524Z,405.00
2023-03-06T09:20:39.622Z,421.88
2023-03-06T09:21:39.766Z,511.88
2023-03-06T09:22:39.907Z,489.38
2023-03-06T09:23:40.054Z,427.50
2023-03-06T09:24:40.248Z,433.12
2023-03-06T09:25:40.326Z,528.75
2023-03-06T09:26:46.241Z,562.50
2023-03-06T09:27:41.601Z,495.00
2023-03-06T09:28:40.754Z,500.62
2023-03-06T09:29:40.863Z,461.25
2023-03-06T09:30:41.039Z,405.00
2023-03-06T09:31:41.100Z,444.38
2023-03-06T09:32:41.334Z,433.12
2023-03-06T09:33:41.379Z,399.38
2023-03-06T09:34:41.495Z,388.12
2023-03-06T09:35:41.611Z,388.12
2023-03-06T09:36:56.035Z,455.62
2023-03-06T09:37:42.864Z,444.38
2023-03-06T09:38:41.994Z,438.75
2023-03-06T09:39:42.164Z,393.75
2023-03-06T09:40:42.257Z,433.12
2023-03-06T09:41:42.381Z,455.62
2023-03-06T09:42:42.472Z,596.25
2023-03-06T09:43:42.616Z,922.50
2023-03-06T09:44:42.749Z,866.25
2023-03-06T09:45:42.961Z,714.38
2023-03-06T09:46:43.042Z,562.50
2023-03-06T09:47:43.178Z,635.62
2023-03-06T09:48:43.329Z,585.00
2023-03-06T09:49:43.418Z,472.50
2023-03-06T09:50:43.599Z,421.88
2023-03-06T09:51:43.717Z,461.25
2023-03-06T09:52:43.818Z,483.75
2023-03-06T09:53:43.976Z,478.12
2023-03-06T09:54:44.073Z,450.00
2023-03-06T09:55:44.229Z,399.38
2023-03-06T09:56:44.366Z,337.50
2023-03-06T09:57:45.133Z,371.25
2023-03-06T09:58:44.561Z,365.62
2023-03-06T09:59:44.659Z,427.50
2023-03-06T10:00:44.813Z,421.88
2023-03-06T10:01:44.953Z,472.50
2023-03-06T10:02:45.150Z,528.75
2023-03-06T10:03:45.184Z,551.25
2023-03-06T10:04:45.345Z,579.38
2023-03-06T10:05:45.400Z,630.00
2023-03-06T10:06:45.511Z,691.88
2023-03-06T10:07:45.616Z,866.25
2023-03-06T10:08:45.730Z,866.25
2023-03-06T10:09:45.857Z,832.50
2023-03-06T10:10:45.970Z,967.50
2023-03-06T10:11:46.091Z,596.25
2023-03-06T10:12:46.181Z,579.38
2023-03-06T10:13:46.343Z,585.00
2023-03-06T10:14:49.009Z,590.62
2023-03-06T10:15:46.586Z,562.50
2023-03-06T10:16:46.679Z,517.50
2023-03-06T10:17:46.775Z,483.75
2023-03-06T10:18:46.894Z,450.00
2023-03-06T10:19:46.989Z,427.50
2023-03-06T10:20:47.161Z,399.38
2023-03-06T10:21:47.313Z,405.00
2023-03-06T10:23:00.092Z,405.00
2023-03-06T10:23:48.521Z,371.25
2023-03-06T10:24:47.647Z,376.88
2023-03-06T10:25:47.782Z,393.75
2023-03-06T10:26:47.951Z,410.62
2023-03-06T10:27:48.024Z,405.00
2023-03-06T10:28:48.116Z,388.12
2023-03-06T10:30:01.528Z,360.00
2023-03-06T10:30:49.436Z,348.75
2023-03-06T10:31:49.687Z,320.62
2023-03-06T10:32:49.587Z,320.62
2023-03-06T10:33:48.829Z,298.12
2023-03-06T10:34:48.887Z,270.00
2023-03-06T10:35:49.116Z,258.75
2023-03-06T10:36:49.188Z,270.00
2023-03-06T10:37:49.364Z,264.38
2023-03-06T10:38:49.503Z,253.12
2023-03-06T10:39:49.578Z,264.38
2023-03-06T10:40:49.739Z,258.75
2023-03-06T10:41:49.844Z,264.38
2023-03-06T10:43:01.583Z,286.88
2023-03-06T10:43:51.067Z,270.00
2023-03-06T10:44:50.166Z,303.75
2023-03-06T10:45:50.314Z,320.62
2023-03-06T10:46:50.435Z,337.50
2023-03-06T10:47:50.516Z,343.12
2023-03-06T10:48:50.615Z,348.75
2023-03-06T10:49:50.725Z,354.38
2023-03-06T10:50:50.866Z,360.00
2023-03-06T10:51:50.966Z,365.62
2023-03-06T10:52:51.073Z,365.62
2023-03-06T10:53:51.183Z,360.00
2023-03-06T10:54:51.323Z,360.00
2023-03-06T10:55:51.455Z,348.75
2023-03-06T10:56:51.557Z,343.12
2023-03-06T10:57:51.651Z,348.75
2023-03-06T10:58:51.760Z,348.75
2023-03-06T10:59:51.881Z,343.12
2023-03-06T11:00:51.998Z,331.88
2023-03-06T11:01:52.137Z,315.00
2023-03-06T11:02:52.201Z,292.50
2023-03-06T11:03:52.299Z,275.62
2023-03-06T11:04:52.590Z,258.75
2023-03-06T11:05:52.541Z,247.50
2023-03-06T11:06:52.638Z,247.50
2023-03-06T11:07:52.759Z,241.88
2023-03-06T11:08:52.859Z,236.25
2023-03-06T11:09:53.004Z,236.25
2023-03-06T11:10:53.111Z,241.88
2023-03-06T11:11:53.189Z,253.12
2023-03-06T11:12:53.338Z,258.75
2023-03-06T11:13:53.496Z,270.00
2023-03-06T11:14:53.627Z,275.62
2023-03-06T11:15:53.779Z,275.62
2023-03-06T11:16:53.854Z,270.00
2023-03-06T11:17:53.956Z,264.38
2023-03-06T11:18:54.066Z,264.38
2023-03-06T11:19:54.154Z,264.38
2023-03-06T11:20:54.468Z,275.62
2023-03-06T11:21:54.406Z,286.88
2023-03-06T11:22:54.572Z,303.75
2023-03-06T11:23:54.705Z,315.00
2023-03-06T11:24:54.834Z,326.25
2023-03-06T11:25:54.944Z,331.88
2023-03-06T11:26:55.048Z,348.75
2023-03-06T11:27:55.204Z,376.88
2023-03-06T11:28:55.381Z,399.38
2023-03-06T11:29:55.459Z,427.50
2023-03-06T11:30:55.618Z,455.62
2023-03-06T11:31:55.699Z,478.12
2023-03-06T11:32:55.804Z,500.62
2023-03-06T11:33:55.964Z,523.12
2023-03-06T11:34:56.088Z,534.38
2023-03-06T11:35:56.145Z,517.50
2023-03-06T11:36:56.255Z,444.38
2023-03-06T11:37:56.356Z,410.62
2023-03-06T11:38:56.515Z,399.38
2023-03-06T11:39:56.625Z,382.50
2023-03-06T11:40:56.755Z,365.62
2023-03-06T11:41:56.862Z,371.25
2023-03-06T11:42:56.967Z,388.12
2023-03-06T11:43:57.084Z,410.62
2023-03-06T11:44:57.190Z,450.00
2023-03-06T11:45:57.340Z,489.38
2023-03-06T11:46:57.479Z,517.50
2023-03-06T11:47:57.562Z,534.38
2023-03-06T11:48:57.692Z,528.75
2023-03-06T11:49:57.792Z,534.38
2023-03-06T11:50:57.891Z,511.88
2023-03-06T11:51:58.003Z,461.25
2023-03-06T11:52:58.116Z,438.75
2023-03-06T11:53:58.242Z,405.00
2023-03-06T11:54:58.331Z,365.62
2023-03-06T11:55:58.431Z,337.50
2023-03-06T11:56:58.603Z,337.50
2023-03-06T11:57:58.703Z,348.75
2023-03-06T11:58:58.844Z,376.88
2023-03-06T11:59:58.931Z,382.50
2023-03-06T12:00:59.036Z,405.00
2023-03-06T12:01:59.210Z,438.75
2023-03-06T12:02:59.263Z,495.00
2023-03-06T12:03:59.400Z,472.50
2023-03-06T12:04:59.510Z,410.62
2023-03-06T12:05:59.650Z,444.38
2023-03-06T12:06:59.808Z,461.25
2023-03-06T12:07:59.889Z,405.00
2023-03-06T12:09:00.053Z,466.88
2023-03-06T12:10:00.154Z,551.25
2023-03-06T12:11:00.253Z,568.12
2023-03-06T12:12:00.338Z,607.50
2023-03-06T12:13:00.572Z,607.50
2023-03-06T12:14:02.370Z,596.25
2023-03-06T12:15:00.846Z,562.50
2023-03-06T12:16:00.890Z,551.25
2023-03-06T12:17:00.967Z,562.50
2023-03-06T12:18:01.136Z,556.88
2023-03-06T12:19:01.222Z,528.75
2023-03-06T12:20:01.396Z,528.75
2023-03-06T12:21:01.497Z,573.75
2023-03-06T12:22:01.606Z,568.12
2023-03-06T12:23:14.536Z,540.00
2023-03-06T12:24:02.846Z,556.88
2023-03-06T12:25:02.406Z,478.12
2023-03-06T12:26:02.096Z,438.75
2023-03-06T12:27:02.200Z,399.38
2023-03-06T12:28:02.302Z,410.62
2023-03-06T12:29:02.410Z,455.62
2023-03-06T12:30:02.496Z,500.62
2023-03-06T12:31:02.674Z,523.12
2023-03-06T12:32:02.871Z,495.00
2023-03-06T12:33:02.914Z,450.00
2023-03-06T12:34:03.013Z,393.75
2023-03-06T12:35:05.755Z,410.62
2023-03-06T12:36:03.223Z,444.38
2023-03-06T12:37:03.322Z,489.38
2023-03-06T12:38:03.446Z,511.88
2023-03-06T12:39:03.531Z,511.88
2023-03-06T12:40:03.640Z,495.00
2023-03-06T12:41:03.901Z,478.12
2023-03-06T12:42:06.753Z,489.38
2023-03-06T12:43:04.984Z,478.12
2023-03-06T12:44:04.135Z,427.50
2023-03-06T12:45:04.235Z,455.62
2023-03-06T12:46:04.395Z,472.50
2023-03-06T12:47:04.562Z,433.12
2023-03-06T12:48:04.653Z,393.75
2023-03-06T12:49:04.792Z,331.88
2023-03-06T12:50:04.940Z,281.25
2023-03-06T12:51:05.039Z,264.38
2023-03-06T12:52:05.207Z,258.75
2023-03-06T12:53:05.323Z,264.38
2023-03-06T12:54:05.461Z,275.62
2023-03-06T12:55:05.566Z,309.38
2023-03-06T12:56:05.656Z,303.75
2023-03-06T12:57:05.850Z,303.75
2023-03-06T12:58:05.957Z,303.75
2023-03-06T12:59:06.066Z,315.00